createdAt,value
2022-11-30T00:01:14.444Z,99705.63
2022-11-30T00:03:41.704Z,99699.56
2022-11-30T00:06:11.422Z,99696.06
2022-11-30T00:08:38.711Z,99691.81
2022-11-30T00:11:13.620Z,99684.00
2022-11-30T00:13:41.122Z,99696.13
2022-11-30T00:16:08.458Z,99695.25
2022-11-30T00:18:35.957Z,99699.56
2022-11-30T00:21:04.628Z,99698.72
2022-11-30T00:23:36.746Z,99701.34
2022-11-30T00:26:06.102Z,99704.00
2022-11-30T00:28:35.554Z,99702.28
2022-11-30T00:31:03.468Z,99704.00
2022-11-30T00:33:34.041Z,99705.72
2022-11-30T00:36:03.561Z,99706.63
2022-11-30T00:38:32.479Z,99704.88
2022-11-30T00:41:00.261Z,99699.69
2022-11-30T00:43:27.673Z,99706.59
2022-11-30T00:45:54.745Z,99709.22
2022-11-30T00:48:21.931Z,99704.94
2022-11-30T00:50:49.881Z,99702.38
2022-11-30T00:53:17.889Z,99700.63
2022-11-30T00:55:45.193Z,99711.03
2022-11-30T00:58:13.075Z,99709.28
2022-11-30T01:00:39.928Z,99714.44
2022-11-30T01:03:07.086Z,99712.69
2022-11-30T01:05:34.904Z,99710.09
2022-11-30T01:08:07.956Z,99706.66
2022-11-30T01:10:36.849Z,99715.28
2022-11-30T01:13:04.675Z,99705.78
2022-11-30T01:15:32.005Z,99704.91
2022-11-30T01:18:00.128Z,99714.44
2022-11-30T01:20:26.888Z,99709.25
2022-11-30T01:22:55.804Z,99717.03
2022-11-30T01:25:23.168Z,99717.91
2022-11-30T01:27:50.863Z,99715.31
2022-11-30T01:30:18.586Z,99714.47
2022-11-30T01:32:45.670Z,99715.28
2022-11-30T01:35:12.704Z,99713.56
2022-11-30T01:37:39.798Z,99717.88
2022-11-30T01:40:07.548Z,99714.47
2022-11-30T01:42:34.914Z,99710.13
2022-11-30T01:45:02.611Z,99715.31
2022-11-30T01:47:41.377Z,99714.44
2022-11-30T01:50:17.114Z,99717.91
2022-11-30T01:52:48.558Z,99714.47
2022-11-30T01:55:32.425Z,99710.97
2022-11-30T01:58:11.760Z,99711.84
2022-11-30T02:00:39.552Z,99711.78
2022-11-30T02:03:17.821Z,99708.34
2022-11-30T02:05:45.127Z,99712.66
2022-11-30T02:08:12.319Z,99710.94
2022-11-30T02:10:42.573Z,99713.56
2022-11-30T02:13:44.752Z,99706.59
2022-11-30T02:16:33.093Z,99710.88
2022-11-30T02:19:31.768Z,99711.78
2022-11-30T02:22:18.769Z,99719.53
2022-11-30T02:24:55.111Z,99711.75
2022-11-30T02:27:43.656Z,99710.88
2022-11-30T02:30:22.269Z,99716.91
2022-11-30T02:32:59.237Z,99722.13
2022-11-30T02:35:30.535Z,99728.19
2022-11-30T02:37:58.230Z,99725.59
2022-11-30T02:40:25.442Z,99728.19
2022-11-30T02:42:54.332Z,99727.31
2022-11-30T02:45:39.540Z,99730.78
2022-11-30T02:48:10.741Z,99727.34
2022-11-30T02:50:43.486Z,99726.50
2022-11-30T02:53:10.623Z,99723.84
2022-11-30T02:55:37.813Z,99728.16
2022-11-30T02:58:05.553Z,99733.31
2022-11-30T03:00:32.777Z,99729.00
2022-11-30T03:02:59.688Z,99730.72
2022-11-30T03:05:26.745Z,99734.22
2022-11-30T03:07:53.615Z,99735.06
2022-11-30T03:10:20.803Z,99738.56
2022-11-30T03:12:47.642Z,99738.56
2022-11-30T03:15:14.945Z,99741.16
2022-11-30T03:17:41.741Z,99733.38
2022-11-30T03:20:09.801Z,99727.31
2022-11-30T03:22:36.597Z,99727.31
2022-11-30T03:25:04.029Z,99724.72
2022-11-30T03:27:30.821Z,99739.38
2022-11-30T03:29:57.815Z,99724.72
2022-11-30T03:32:24.560Z,99730.78
2022-11-30T03:34:51.662Z,99727.34
2022-11-30T03:37:18.587Z,99733.41
2022-11-30T03:39:45.872Z,99728.25
2022-11-30T03:42:12.629Z,99733.44
2022-11-30T03:44:39.736Z,99733.44
2022-11-30T03:47:06.485Z,99737.72
2022-11-30T03:49:33.614Z,99734.28
2022-11-30T03:52:00.421Z,99736.03
2022-11-30T03:54:27.519Z,99745.53
2022-11-30T03:56:54.301Z,99749.81
2022-11-30T03:59:21.395Z,99750.66
2022-11-30T04:01:48.230Z,99741.97
2022-11-30T04:04:15.538Z,99748.00
2022-11-30T04:06:42.346Z,99742.88
2022-11-30T04:09:10.087Z,99742.88
2022-11-30T04:11:37.017Z,99748.03
2022-11-30T04:14:04.136Z,99742.81
2022-11-30T04:16:30.936Z,99739.34
2022-11-30T04:18:58.038Z,99741.06
2022-11-30T04:21:24.888Z,99738.50
2022-11-30T04:23:52.073Z,99748.00
2022-11-30T04:26:19.053Z,99739.31
2022-11-30T04:28:46.232Z,99748.00
2022-11-30T04:31:13.448Z,99754.94
2022-11-30T04:33:40.661Z,99750.66
2022-11-30T04:36:08.348Z,99756.69
2022-11-30T04:38:36.789Z,99754.09
2022-11-30T04:41:08.245Z,99753.19
2022-11-30T04:43:35.347Z,99758.41
2022-11-30T04:46:02.138Z,99759.25
2022-11-30T04:48:29.212Z,99761.84
2022-11-30T04:51:01.496Z,99752.44
2022-11-30T04:53:28.727Z,99768.78
2022-11-30T04:55:55.574Z,99761.81
2022-11-30T04:58:22.946Z,99772.16
2022-11-30T05:00:49.941Z,99768.69
2022-11-30T05:03:17.065Z,99770.44
2022-11-30T05:05:43.784Z,99768.69
2022-11-30T05:08:11.000Z,99778.22
2022-11-30T05:10:37.828Z,99772.16
2022-11-30T05:13:04.940Z,99779.06
2022-11-30T05:15:32.768Z,99776.53
2022-11-30T05:18:01.322Z,99785.19
2022-11-30T05:20:29.224Z,99786.00
2022-11-30T05:22:56.307Z,99785.97
2022-11-30T05:25:23.172Z,99792.88
2022-11-30T05:27:50.444Z,99790.28
2022-11-30T05:30:17.528Z,99798.06
2022-11-30T05:32:44.645Z,99797.16
2022-11-30T05:35:11.469Z,99797.19
2022-11-30T05:37:38.628Z,99800.66
2022-11-30T05:40:06.163Z,99799.75
2022-11-30T05:42:33.337Z,99804.06
2022-11-30T05:45:00.079Z,99807.53
2022-11-30T05:47:27.173Z,99804.88
2022-11-30T05:49:53.966Z,99809.19
2022-11-30T05:52:21.078Z,99805.75
2022-11-30T05:54:48.208Z,99811.81
2022-11-30T05:57:15.573Z,99824.78
2022-11-30T05:59:42.376Z,99817.81
2022-11-30T06:02:09.541Z,99817.00
2022-11-30T06:04:36.518Z,99823.00
2022-11-30T06:07:04.531Z,99823.03
2022-11-30T06:09:31.381Z,99828.28
2022-11-30T06:11:58.443Z,99835.22
2022-11-30T06:14:25.222Z,99834.31
2022-11-30T06:16:52.360Z,99846.41
2022-11-30T06:19:19.192Z,99841.16
2022-11-30T06:21:46.287Z,99835.91
2022-11-30T06:24:13.110Z,99839.31
2022-11-30T06:26:40.203Z,99838.44
2022-11-30T06:29:07.058Z,99840.19
2022-11-30T06:31:34.277Z,99840.19
2022-11-30T06:34:01.138Z,99841.94
2022-11-30T06:36:34.188Z,99843.63
2022-11-30T06:39:03.545Z,99848.78
2022-11-30T06:41:30.689Z,99850.41
2022-11-30T06:43:57.425Z,99847.00
2022-11-30T06:46:25.099Z,99847.84
2022-11-30T06:48:51.878Z,99855.66
2022-11-30T06:51:19.515Z,99854.88
2022-11-30T06:53:46.901Z,99850.56
2022-11-30T06:56:13.984Z,99848.81
2022-11-30T06:58:41.932Z,99854.06
2022-11-30T07:01:12.469Z,99840.22
2022-11-30T07:03:40.537Z,99842.88
2022-11-30T07:06:10.342Z,99843.75
2022-11-30T07:08:37.272Z,99844.66
2022-11-30T07:11:05.450Z,99849.00
2022-11-30T07:13:32.392Z,99845.56
2022-11-30T07:15:59.489Z,99840.41
2022-11-30T07:18:31.657Z,99834.44
2022-11-30T07:21:01.013Z,99837.88
2022-11-30T07:23:52.251Z,99837.03
2022-11-30T07:26:22.162Z,99828.44
2022-11-30T07:28:54.814Z,99840.59
2022-11-30T07:31:30.530Z,99846.63
2022-11-30T07:33:59.073Z,99852.75
2022-11-30T07:36:27.015Z,99850.13
2022-11-30T07:38:53.887Z,99846.75
2022-11-30T07:41:20.951Z,99844.22
2022-11-30T07:43:47.744Z,99839.97
2022-11-30T07:46:16.412Z,99837.41
2022-11-30T07:48:45.204Z,99845.25
2022-11-30T07:51:14.986Z,99844.41
2022-11-30T07:53:42.083Z,99855.69
2022-11-30T07:56:20.105Z,99849.66
2022-11-30T07:58:47.971Z,99849.72
2022-11-30T08:01:18.358Z,99847.16
2022-11-30T08:03:45.401Z,99848.94
2022-11-30T08:06:15.384Z,99847.19
2022-11-30T08:08:46.274Z,99848.09
2022-11-30T08:11:16.875Z,99852.44
2022-11-30T08:13:44.424Z,99842.03
2022-11-30T08:16:18.980Z,99838.63
2022-11-30T08:18:46.189Z,99843.81
2022-11-30T08:21:14.906Z,99841.25
2022-11-30T08:23:50.264Z,99844.78
2022-11-30T08:26:19.799Z,99840.47
2022-11-30T08:28:48.269Z,99843.09
2022-11-30T08:31:20.044Z,99843.13
2022-11-30T08:33:47.088Z,99839.66
2022-11-30T08:36:19.998Z,99847.53
2022-11-30T08:38:47.825Z,99853.59
2022-11-30T08:41:19.044Z,99842.34
2022-11-30T08:43:46.080Z,99844.97
2022-11-30T08:54:42.480Z,99848.47
2022-11-30T08:57:09.641Z,99838.94
2022-11-30T08:59:36.685Z,99838.09
2022-11-30T09:02:03.909Z,99833.78
2022-11-30T09:04:30.840Z,99831.13
2022-11-30T09:06:59.406Z,99837.19
2022-11-30T09:09:26.647Z,99825.13
2022-11-30T09:11:53.725Z,99831.19
2022-11-30T09:14:20.480Z,99832.06
2022-11-30T09:16:47.819Z,99827.69
2022-11-30T09:19:14.595Z,99820.75
2022-11-30T09:21:44.243Z,99826.84
2022-11-30T09:24:13.862Z,99828.56
2022-11-30T09:26:40.880Z,99832.88
2022-11-30T09:29:07.719Z,99838.94
2022-11-30T09:31:35.045Z,99833.72
2022-11-30T09:34:01.828Z,99824.19
2022-11-30T09:36:29.990Z,99835.44
2022-11-30T09:38:57.209Z,99825.09
2022-11-30T09:41:39.559Z,99824.22
2022-11-30T09:44:15.816Z,99826.84
2022-11-30T09:47:01.504Z,99833.78
2022-11-30T09:49:34.388Z,99832.06
2022-11-30T09:52:05.643Z,99822.53
2022-11-30T09:54:38.618Z,99818.19
2022-11-30T09:57:23.976Z,99824.34
2022-11-30T10:00:00.682Z,99828.69
2022-11-30T10:02:38.519Z,99827.81
2022-11-30T10:05:25.321Z,99826.97
2022-11-30T10:08:19.578Z,99826.94
2022-11-30T10:11:14.463Z,99819.19
2022-11-30T10:14:26.061Z,99823.53
2022-11-30T10:17:22.285Z,99813.16
2022-11-30T10:20:17.810Z,99816.63
2022-11-30T10:22:56.440Z,99818.41
2022-11-30T10:25:43.475Z,99811.50
2022-11-30T10:28:45.663Z,99809.78
2022-11-30T10:31:11.953Z,99808.03
2022-11-30T10:33:45.586Z,99800.22
2022-11-30T10:36:20.161Z,99806.31
2022-11-30T10:38:55.288Z,99802.84
2022-11-30T10:41:29.184Z,99810.66
2022-11-30T10:44:02.767Z,99807.22
2022-11-30T10:46:36.633Z,99810.66
2022-11-30T10:49:23.533Z,99804.63
2022-11-30T10:51:57.030Z,99804.66
2022-11-30T10:54:24.060Z,99803.78
2022-11-30T10:56:51.121Z,99809.00
2022-11-30T10:59:27.954Z,99809.88
2022-11-30T11:01:55.084Z,99808.13
2022-11-30T11:04:27.581Z,99806.41
2022-11-30T11:07:14.275Z,99802.13
2022-11-30T11:09:41.057Z,99795.16
2022-11-30T11:12:27.896Z,99798.63
2022-11-30T11:15:19.951Z,99789.97
2022-11-30T11:17:48.074Z,99790.00
2022-11-30T11:20:34.709Z,99783.06
2022-11-30T11:23:04.284Z,99788.28
2022-11-30T11:25:36.363Z,99791.72
2022-11-30T11:28:14.297Z,99799.50
2022-11-30T11:30:41.564Z,99786.50
2022-11-30T11:33:12.038Z,99779.56
2022-11-30T11:35:47.859Z,99783.03
2022-11-30T11:38:38.997Z,99794.28
2022-11-30T11:41:13.979Z,99780.41
2022-11-30T11:44:00.205Z,99773.50
2022-11-30T11:46:27.700Z,99783.91
2022-11-30T11:49:18.617Z,99785.63
2022-11-30T11:51:45.902Z,99789.13
2022-11-30T11:54:24.742Z,99799.50
2022-11-30T11:56:53.165Z,99802.09
2022-11-30T11:59:48.748Z,99799.47
2022-11-30T12:02:42.449Z,99793.38
2022-11-30T12:05:17.802Z,99808.13
2022-11-30T12:08:00.090Z,99809.84
2022-11-30T12:10:51.661Z,99804.63
2022-11-30T12:13:24.972Z,99797.69
2022-11-30T12:16:02.895Z,99792.50
2022-11-30T12:19:07.832Z,99789.91
2022-11-30T12:22:01.150Z,99798.59
2022-11-30T12:25:05.496Z,99801.19
2022-11-30T12:27:53.606Z,99801.19
2022-11-30T12:30:36.295Z,99790.78
2022-11-30T12:33:16.468Z,99808.13
2022-11-30T12:36:30.316Z,99807.25
2022-11-30T12:39:18.855Z,99807.25
2022-11-30T12:42:00.666Z,99796.81
2022-11-30T12:44:52.381Z,99798.56
2022-11-30T12:47:35.827Z,99796.84
2022-11-30T12:50:08.875Z,99789.00
2022-11-30T12:53:09.683Z,99785.53
2022-11-30T12:55:45.733Z,99785.56
2022-11-30T12:58:32.500Z,99790.78
2022-11-30T13:01:25.064Z,99789.06
2022-11-30T13:03:59.181Z,99786.50
2022-11-30T13:06:38.963Z,99796.91
2022-11-30T13:09:30.922Z,99796.91
2022-11-30T13:12:11.806Z,99783.91
2022-11-30T13:14:40.132Z,99787.41
2022-11-30T13:17:15.768Z,99794.31
2022-11-30T13:20:04.615Z,99790.00
2022-11-30T13:22:50.644Z,99787.41
2022-11-30T13:28:42.653Z,99798.69
2022-11-30T13:31:15.432Z,99790.88
2022-11-30T13:33:49.596Z,99790.00
2022-11-30T13:36:34.714Z,99793.50
2022-11-30T13:39:22.116Z,99794.38
2022-11-30T13:41:50.466Z,99785.72
2022-11-30T13:44:31.209Z,99789.19
2022-11-30T13:46:59.511Z,99787.44
2022-11-30T13:49:33.507Z,99791.78
2022-11-30T13:52:22.115Z,99791.81
2022-11-30T13:54:58.214Z,99803.09
2022-11-30T13:57:24.954Z,99798.75
2022-11-30T13:59:53.866Z,99802.19
2022-11-30T14:02:41.889Z,99794.41
2022-11-30T14:05:18.226Z,99802.22
2022-11-30T14:07:47.916Z,99793.56
2022-11-30T14:10:30.997Z,99805.69
2022-11-30T14:13:20.273Z,99801.38
2022-11-30T14:15:47.376Z,99796.16
2022-11-30T14:18:19.915Z,99790.09
2022-11-30T14:21:12.632Z,99795.28
2022-11-30T14:23:39.392Z,99790.97
2022-11-30T14:26:30.349Z,99790.09
2022-11-30T14:29:03.640Z,99792.69
2022-11-30T14:31:37.355Z,99796.16
2022-11-30T14:34:15.671Z,99800.50
2022-11-30T14:36:48.161Z,99801.38
2022-11-30T14:39:35.151Z,99794.41
2022-11-30T14:42:05.084Z,99794.44
2022-11-30T14:44:39.228Z,99792.69
2022-11-30T14:47:33.670Z,99787.47
2022-11-30T14:50:03.103Z,99789.22
2022-11-30T14:52:57.824Z,99787.50
2022-11-30T14:55:55.452Z,99791.84
2022-11-30T14:58:46.562Z,99791.84
2022-11-30T15:01:32.700Z,99785.75
2022-11-30T15:04:11.667Z,99795.31
2022-11-30T15:06:39.717Z,99790.09
2022-11-30T15:09:16.644Z,99784.03
2022-11-30T15:11:46.847Z,99784.06
2022-11-30T15:14:14.221Z,99794.47
2022-11-30T15:16:55.351Z,99793.59
2022-11-30T15:19:31.074Z,99787.50
2022-11-30T15:21:59.217Z,99790.13
2022-11-30T15:24:28.317Z,99788.38
2022-11-30T15:27:10.234Z,99791.84
2022-11-30T15:29:42.867Z,99797.06
2022-11-30T15:32:19.189Z,99797.06
2022-11-30T15:35:04.626Z,99793.59
2022-11-30T15:37:34.284Z,99803.97
2022-11-30T15:40:05.592Z,99800.50
2022-11-30T15:42:40.854Z,99794.44
2022-11-30T15:45:14.733Z,99792.69
2022-11-30T15:47:41.477Z,99795.31
2022-11-30T15:50:26.834Z,99790.97
2022-11-30T15:52:55.515Z,99797.94
2022-11-30T15:55:53.070Z,99791.00
2022-11-30T15:58:45.583Z,99783.16
2022-11-30T16:01:17.402Z,99788.38
2022-11-30T16:04:10.473Z,99783.16
2022-11-30T16:06:46.329Z,99790.97
2022-11-30T16:09:25.172Z,99791.00
2022-11-30T16:11:57.244Z,99792.69
2022-11-30T16:14:24.221Z,99788.38
2022-11-30T16:16:53.923Z,99788.38
2022-11-30T16:19:21.656Z,99784.00
2022-11-30T16:21:49.450Z,99790.09
2022-11-30T16:24:17.204Z,99789.22
2022-11-30T16:26:52.306Z,99784.03
2022-11-30T16:29:20.038Z,99783.16
2022-11-30T16:31:47.302Z,99785.78
2022-11-30T16:34:14.598Z,99790.13
2022-11-30T16:36:41.684Z,99778.84
2022-11-30T16:39:12.131Z,99777.97
2022-11-30T16:41:39.520Z,99781.44
2022-11-30T16:44:13.480Z,99779.75
2022-11-30T16:46:40.696Z,99773.66
2022-11-30T16:49:07.474Z,99779.72
2022-11-30T16:51:35.157Z,99776.28
2022-11-30T16:54:02.397Z,99778.88
2022-11-30T16:56:29.667Z,99773.66
2022-11-30T16:58:56.460Z,99780.59
2022-11-30T17:01:35.712Z,99781.47
2022-11-30T17:04:19.550Z,99781.47
2022-11-30T17:06:50.287Z,99787.56
2022-11-30T17:09:19.909Z,99784.06
2022-11-30T17:11:50.526Z,99787.56
2022-11-30T17:14:17.536Z,99794.47
2022-11-30T17:16:44.664Z,99781.47
2022-11-30T17:19:11.830Z,99789.28
2022-11-30T17:21:40.327Z,99786.69
2022-11-30T17:24:07.417Z,99788.44
2022-11-30T17:26:34.509Z,99787.53
2022-11-30T17:29:01.701Z,99784.94
2022-11-30T17:31:29.169Z,99787.53
2022-11-30T17:33:56.108Z,99790.16
2022-11-30T17:36:23.592Z,99785.81
2022-11-30T17:38:50.732Z,99784.94
2022-11-30T17:41:19.909Z,99788.41
2022-11-30T17:43:47.747Z,99784.97
2022-11-30T17:46:17.229Z,99788.41
2022-11-30T17:48:44.265Z,99791.91
2022-11-30T17:51:11.653Z,99792.75
2022-11-30T17:53:39.488Z,99791.91
2022-11-30T17:56:15.412Z,99795.38
2022-11-30T17:58:44.686Z,99799.72
2022-11-30T18:01:23.741Z,99796.22
2022-11-30T18:03:51.870Z,99793.63
2022-11-30T18:06:19.712Z,99791.03
2022-11-30T18:08:46.556Z,99795.38
2022-11-30T18:11:14.853Z,99794.50
2022-11-30T18:13:41.852Z,99797.09
2022-11-30T18:16:18.399Z,99797.09
2022-11-30T18:18:48.139Z,99785.81
2022-11-30T18:21:19.102Z,99796.25
2022-11-30T18:23:46.262Z,99786.69
2022-11-30T18:26:18.623Z,99784.94
2022-11-30T18:28:50.662Z,99791.03
2022-11-30T18:31:17.737Z,99786.69
2022-11-30T18:33:44.557Z,99792.75
2022-11-30T18:36:11.596Z,99792.75
2022-11-30T18:38:39.031Z,99802.28
2022-11-30T18:41:06.835Z,99806.66
2022-11-30T18:43:34.377Z,99799.69
2022-11-30T18:46:03.079Z,99804.91
2022-11-30T18:48:29.888Z,99812.69
2022-11-30T18:50:56.965Z,99809.22
2022-11-30T18:53:23.878Z,99811.84
2022-11-30T18:55:51.045Z,99810.09
2022-11-30T18:58:17.792Z,99812.69
2022-11-30T19:00:44.932Z,99812.69
2022-11-30T19:03:11.794Z,99814.41
2022-11-30T19:05:40.580Z,99811.81
2022-11-30T19:08:11.421Z,99820.47
2022-11-30T19:10:40.069Z,99819.63
2022-11-30T19:13:07.550Z,99815.28
2022-11-30T19:15:40.436Z,99821.38
2022-11-30T19:18:08.081Z,99821.34
2022-11-30T19:20:41.872Z,99832.63
2022-11-30T19:23:08.905Z,99818.75
2022-11-30T19:25:36.061Z,99815.28
2022-11-30T19:28:02.807Z,99818.75
2022-11-30T19:30:30.126Z,99826.53
2022-11-30T19:32:56.966Z,99818.75
2022-11-30T19:35:25.185Z,99819.59
2022-11-30T19:37:52.794Z,99819.63
2022-11-30T19:40:20.049Z,99820.50
2022-11-30T19:42:46.770Z,99817.88
2022-11-30T19:45:13.804Z,99816.13
2022-11-30T19:47:40.601Z,99819.59
2022-11-30T19:50:08.001Z,99826.53
2022-11-30T19:52:34.846Z,99827.41
2022-11-30T19:55:02.029Z,99838.66
2022-11-30T19:57:28.796Z,99827.41
2022-11-30T19:59:55.957Z,99834.34
2022-11-30T20:02:22.783Z,99829.13
2022-11-30T20:04:50.128Z,99835.19
2022-11-30T20:07:17.068Z,99834.34
2022-11-30T20:09:44.124Z,99837.81
2022-11-30T20:12:10.981Z,99835.19
2022-11-30T20:14:37.993Z,99830.00
2022-11-30T20:17:04.861Z,99831.72
2022-11-30T20:19:32.016Z,99832.59
2022-11-30T20:21:59.439Z,99823.94
2022-11-30T20:24:26.710Z,99821.31
2022-11-30T20:26:53.572Z,99819.59
2022-11-30T20:29:20.656Z,99823.06
2022-11-30T20:31:49.104Z,99821.31
2022-11-30T20:34:16.966Z,99817.84
2022-11-30T20:36:43.824Z,99828.22
2022-11-30T20:39:12.027Z,99831.72
2022-11-30T20:41:39.104Z,99822.19
2022-11-30T20:44:06.496Z,99838.66
2022-11-30T20:46:35.916Z,99830.84
2022-11-30T20:49:11.589Z,99831.72
2022-11-30T20:51:38.328Z,99833.44
2022-11-30T20:54:07.131Z,99832.59
2022-11-30T20:56:36.820Z,99830.00
2022-11-30T20:59:06.779Z,99840.38
2022-11-30T21:01:33.903Z,99835.16
2022-11-30T21:04:01.545Z,99835.19
2022-11-30T21:06:30.093Z,99836.91
2022-11-30T21:08:58.066Z,99832.56
2022-11-30T21:11:25.505Z,99834.28
2022-11-30T21:13:53.032Z,99830.81
2022-11-30T21:16:27.667Z,99833.44
2022-11-30T21:18:56.999Z,99831.69
2022-11-30T21:21:26.017Z,99829.09
2022-11-30T21:23:53.379Z,99830.81
2022-11-30T21:26:25.462Z,99831.69
2022-11-30T21:28:55.970Z,99824.75
2022-11-30T21:31:23.651Z,99828.22
2022-11-30T21:33:53.484Z,99828.19
2022-11-30T21:36:21.865Z,99834.25
2022-11-30T21:38:57.060Z,99834.25
2022-11-30T21:41:29.979Z,99824.72
2022-11-30T21:43:57.020Z,99830.78
2022-11-30T21:46:23.856Z,99834.25
2022-11-30T21:48:52.477Z,99830.81
2022-11-30T21:51:22.707Z,99827.31
2022-11-30T21:53:52.380Z,99834.25
2022-11-30T21:56:21.563Z,99829.91
2022-11-30T21:58:50.306Z,99829.94
2022-11-30T22:01:23.431Z,99821.25
2022-11-30T22:03:50.603Z,99816.03
2022-11-30T22:06:18.898Z,99824.72
2022-11-30T22:08:46.456Z,99827.31
2022-11-30T22:11:18.536Z,99815.19
2022-11-30T22:13:49.019Z,99821.25
2022-11-30T22:16:16.916Z,99827.31
2022-11-30T22:18:45.137Z,99826.47
2022-11-30T22:21:14.516Z,99816.06
2022-11-30T22:23:52.705Z,99826.44
2022-11-30T22:26:22.573Z,99825.56
2022-11-30T22:28:58.778Z,99823.81
2022-11-30T22:31:29.149Z,99834.25
2022-11-30T22:33:57.186Z,99828.19
2022-11-30T22:36:26.433Z,99827.31
2022-11-30T22:38:59.044Z,99834.22
2022-11-30T22:41:26.870Z,99832.50
2022-11-30T22:43:55.500Z,99821.22
2022-11-30T22:46:25.030Z,99828.16
2022-11-30T22:48:52.900Z,99822.13
2022-11-30T22:51:25.222Z,99821.25
2022-11-30T22:53:53.324Z,99822.97
2022-11-30T22:56:25.503Z,99826.44
2022-11-30T22:58:54.862Z,99818.66
2022-11-30T23:01:24.379Z,99826.44
2022-11-30T23:03:53.967Z,99819.50
2022-11-30T23:06:22.153Z,99819.50
2022-11-30T23:08:50.220Z,99823.84
2022-11-30T23:11:20.081Z,99824.72
2022-11-30T23:13:47.137Z,99822.97
2022-11-30T23:16:15.380Z,99823.81
2022-11-30T23:18:48.598Z,99826.44
2022-11-30T23:21:18.640Z,99824.72
2022-11-30T23:23:46.674Z,99818.63
2022-11-30T23:26:22.280Z,99816.91
2022-11-30T23:28:51.882Z,99816.91
2022-11-30T23:31:33.696Z,99817.75
2022-11-30T23:34:05.499Z,99821.22
2022-11-30T23:36:33.672Z,99817.75
2022-11-30T23:39:03.606Z,99818.63
2022-11-30T23:41:30.435Z,99811.69
2022-11-30T23:43:57.810Z,99821.22
2022-11-30T23:46:25.396Z,99819.50
2022-11-30T23:48:52.788Z,99816.03
2022-11-30T23:51:19.509Z,99827.31
2022-11-30T23:53:46.529Z,99813.44
2022-11-30T23:56:16.242Z,99815.16
2022-11-30T23:58:43.344Z,99814.28
